createdAt,value
2018-12-15T00:00:09.680Z,0.70
2018-12-15T00:02:37.276Z,0.60
2018-12-15T00:05:05.570Z,0.60
2018-12-15T00:07:33.135Z,0.60
2018-12-15T00:10:00.739Z,0.60
2018-12-15T00:12:28.274Z,0.50
2018-12-15T00:14:55.932Z,0.50
2018-12-15T00:17:23.492Z,0.50
2018-12-15T00:19:51.109Z,0.50
2018-12-15T00:22:18.668Z,0.50
2018-12-15T00:24:46.228Z,0.50
2018-12-15T00:27:13.776Z,0.40
2018-12-15T00:29:41.396Z,0.40
2018-12-15T00:32:09.067Z,0.50
2018-12-15T00:34:36.618Z,0.50
2018-12-15T00:37:04.148Z,0.50
2018-12-15T00:39:32.510Z,0.50
2018-12-15T00:42:00.060Z,0.40
2018-12-15T00:44:27.637Z,0.50
2018-12-15T00:46:55.169Z,0.50
2018-12-15T00:49:22.755Z,0.50
2018-12-15T00:51:50.304Z,0.50
2018-12-15T00:54:17.855Z,0.50
2018-12-15T00:56:45.417Z,0.50
2018-12-15T00:59:12.960Z,0.50
2018-12-15T01:01:40.583Z,0.40
2018-12-15T01:04:08.247Z,0.40
2018-12-15T01:06:35.926Z,0.40
2018-12-15T01:09:04.288Z,0.40
2018-12-15T01:11:31.874Z,0.50
2018-12-15T01:13:59.465Z,0.50
2018-12-15T01:16:27.032Z,0.50
2018-12-15T01:18:54.597Z,0.40
2018-12-15T01:21:22.160Z,0.50
2018-12-15T01:23:49.701Z,0.50
2018-12-15T01:26:17.313Z,0.40
2018-12-15T01:28:44.891Z,0.40
2018-12-15T01:31:12.455Z,0.40
2018-12-15T01:33:40.028Z,0.50
2018-12-15T01:36:07.575Z,0.50
2018-12-15T01:38:35.098Z,0.40
2018-12-15T01:41:02.648Z,0.40
2018-12-15T01:43:30.172Z,0.30
2018-12-15T01:45:57.795Z,0.40
2018-12-15T01:48:25.347Z,0.40
2018-12-15T01:50:52.895Z,0.40
2018-12-15T01:53:20.427Z,0.40
2018-12-15T01:55:47.996Z,0.40
2018-12-15T01:58:16.755Z,0.40
2018-12-15T02:00:44.348Z,0.40
2018-12-15T02:03:11.906Z,0.40
2018-12-15T02:05:39.487Z,0.40
2018-12-15T02:08:07.039Z,0.40
2018-12-15T02:10:34.584Z,0.40
2018-12-15T02:13:02.135Z,0.40
2018-12-15T02:15:29.788Z,0.40
2018-12-15T02:17:57.347Z,0.40
2018-12-15T02:20:24.881Z,0.40
2018-12-15T02:22:52.420Z,0.40
2018-12-15T02:25:19.948Z,0.40
2018-12-15T02:27:47.502Z,0.40
2018-12-15T02:30:15.206Z,0.40
2018-12-15T02:32:42.812Z,0.40
2018-12-15T02:35:10.369Z,0.40
2018-12-15T02:37:37.958Z,0.40
2018-12-15T02:40:05.586Z,0.40
2018-12-15T02:42:33.162Z,0.40
2018-12-15T02:45:00.682Z,0.40
2018-12-15T02:47:28.250Z,0.40
2018-12-15T02:49:55.782Z,0.40
2018-12-15T02:52:23.348Z,0.40
2018-12-15T02:54:50.882Z,0.40
2018-12-15T02:57:18.465Z,0.40
2018-12-15T02:59:46.026Z,0.40
2018-12-15T03:02:13.562Z,0.40
2018-12-15T03:04:41.123Z,0.40
2018-12-15T03:07:08.687Z,0.40
2018-12-15T03:09:36.269Z,0.40
2018-12-15T03:12:03.853Z,0.40
2018-12-15T03:14:31.494Z,0.40
2018-12-15T03:17:04.427Z,0.40
2018-12-15T03:19:32.025Z,0.30
2018-12-15T03:21:59.559Z,0.40
2018-12-15T03:24:27.306Z,0.30
2018-12-15T03:26:54.863Z,0.40
2018-12-15T03:29:22.403Z,0.40
2018-12-15T03:31:49.988Z,0.40
2018-12-15T03:34:17.631Z,0.40
2018-12-15T03:36:45.194Z,0.50
2018-12-15T03:39:12.743Z,0.50
2018-12-15T03:41:40.279Z,0.50
2018-12-15T03:44:07.932Z,0.50
2018-12-15T03:46:35.457Z,0.40
2018-12-15T03:49:03.053Z,0.40
2018-12-15T03:51:30.580Z,0.40
2018-12-15T03:53:58.120Z,0.40
2018-12-15T03:56:25.656Z,0.30
2018-12-15T03:58:53.193Z,0.30
2018-12-15T04:01:20.757Z,0.30
2018-12-15T04:03:48.336Z,0.30
2018-12-15T04:06:15.860Z,0.30
2018-12-15T04:08:43.420Z,0.30
2018-12-15T04:11:10.945Z,0.30
2018-12-15T04:13:38.496Z,0.40
2018-12-15T04:16:06.040Z,0.40
2018-12-15T04:18:33.702Z,0.50
2018-12-15T04:21:01.310Z,0.40
2018-12-15T04:23:28.864Z,0.40
2018-12-15T04:25:56.415Z,0.50
2018-12-15T04:28:23.981Z,0.50
2018-12-15T04:30:51.529Z,0.50
2018-12-15T04:33:19.064Z,0.50
2018-12-15T04:35:46.688Z,0.50
2018-12-15T04:38:14.221Z,1.40
2018-12-15T04:40:42.004Z,0.50
2018-12-15T04:43:09.551Z,0.60
2018-12-15T04:45:37.096Z,0.60
2018-12-15T04:48:10.802Z,0.60
2018-12-15T04:50:34.225Z,0.60
2018-12-15T04:53:01.757Z,0.50
2018-12-15T04:55:29.314Z,0.50
2018-12-15T04:57:56.857Z,0.50
2018-12-15T05:00:24.445Z,0.50
2018-12-15T05:02:51.960Z,0.50
2018-12-15T05:05:19.545Z,0.40
2018-12-15T05:07:47.089Z,0.50
2018-12-15T05:10:14.641Z,0.40
2018-12-15T05:12:42.275Z,0.50
2018-12-15T05:15:09.916Z,0.50
2018-12-15T05:17:37.726Z,0.40
2018-12-15T05:20:05.419Z,0.50
2018-12-15T05:22:33.045Z,0.50
2018-12-15T05:25:00.598Z,0.60
2018-12-15T05:27:28.237Z,0.80
2018-12-15T05:29:55.866Z,1.00
2018-12-15T05:32:23.444Z,1.20
2018-12-15T05:34:50.992Z,1.30
2018-12-15T05:37:18.625Z,1.40
2018-12-15T05:39:46.215Z,1.40
2018-12-15T05:42:13.916Z,1.50
2018-12-15T05:44:41.741Z,1.50
2018-12-15T05:47:09.396Z,1.40
